Time;durP1;ratioP1;P1;durP2;ratioP2;P2;SDS_P1;SDS_P2;PMS_P1;PMS_P2;Temp;Humidity;BMP_temperature;BMP_pressure;BME280_temperature;BME280_humidity;BME280_pressure;Samples;Min_cycle;Max_cycle;Signal;HPM_P1;HPM_P2
2022/06/25 00:01:24;;;;;;;3.50;3.20;;;;;;;;;;5034383;28;20449;-54
2022/06/25 00:03:50;;;;;;;3.30;3.10;;;;;;;;;;5034845;28;20463;-55
2022/06/25 00:06:16;;;;;;;3.13;2.77;;;;;;;;;;5034700;28;20375;-54
2022/06/25 00:08:44;;;;;;;2.73;2.53;;;;;;;;;;5034692;28;20996;-55
2022/06/25 00:12:31;;;;;;;7.70;2.70;;;;;;;;;;5034226;28;20916;-55
2022/06/25 00:13:57;;;;;;;3.17;2.87;;;;;;;;;;5034465;28;20449;-55
2022/06/25 00:16:23;;;;;;;3.30;3.00;;;;;;;;;;5034525;28;20611;-54
2022/06/25 00:18:49;;;;;;;3.43;2.93;;;;;;;;;;5034510;28;20807;-56
2022/06/25 00:21:15;;;;;;;2.80;2.60;;;;;;;;;;5034036;28;20433;-55
2022/06/25 00:23:41;;;;;;;5.63;2.90;;;;;;;;;;5034392;28;20399;-55
2022/06/25 00:26:07;;;;;;;2.93;2.70;;;;;;;;;;5034207;28;20488;-55
2022/06/25 00:28:33;;;;;;;3.37;2.60;;;;;;;;;;5034357;28;20864;-55
2022/06/25 00:30:59;;;;;;;2.37;2.27;;;;;;;;;;5033964;28;20461;-55
2022/06/25 00:33:25;;;;;;;9.13;2.60;;;;;;;;;;5033751;28;20404;-56
2022/06/25 00:35:51;;;;;;;2.83;2.63;;;;;;;;;;5034101;28;20461;-56
2022/06/25 00:38:17;;;;;;;2.80;2.37;;;;;;;;;;5034098;28;20404;-56
2022/06/25 00:40:43;;;;;;;5.53;2.77;;;;;;;;;;5033822;28;20404;-56
2022/06/25 00:43:09;;;;;;;3.03;2.83;;;;;;;;;;5034283;28;20384;-54
2022/06/25 00:45:35;;;;;;;4.20;2.10;;;;;;;;;;5034048;28;20916;-55
2022/06/25 00:48:01;;;;;;;6.27;3.07;;;;;;;;;;5033874;28;20471;-56
2022/06/25 00:50:27;;;;;;;4.40;2.80;;;;;;;;;;5033551;28;20902;-56
2022/06/25 00:52:54;;;;;;;2.90;2.57;;;;;;;;;;5033779;28;20473;-56
2022/06/25 00:55:23;;;;;;;3.00;2.80;;;;;;;;;;5033787;28;20417;-55
2022/06/25 00:57:50;;;;;;;3.33;3.03;;;;;;;;;;5033790;28;20430;-56
2022/06/25 01:00:17;;;;;;;3.33;3.13;;;;;;;;;;5033440;28;20414;-56
2022/06/25 01:02:44;;;;;;;3.43;3.10;;;;;;;;;;5032904;28;20451;-55
2022/06/25 01:05:11;;;;;;;3.00;2.63;;;;;;;;;;5033160;28;20449;-55
2022/06/25 01:07:37;;;;;;;3.70;3.40;;;;;;;;;;5033231;28;20384;-55
2022/06/25 01:10:06;;;;;;;9.10;3.40;;;;;;;;;;5033361;28;20518;-54
2022/06/25 01:12:32;;;;;;;4.40;3.63;;;;;;;;;;5033320;28;20446;-55
2022/06/25 01:15:02;;;;;;;3.47;3.13;;;;;;;;;;5033587;28;20380;-55
2022/06/25 01:17:29;;;;;;;5.40;3.50;;;;;;;;;;5033346;28;20763;-56
2022/06/25 01:19:55;;;;;;;6.63;2.87;;;;;;;;;;5033329;28;20370;-55
2022/06/25 01:22:21;;;;;;;3.33;3.00;;;;;;;;;;5033053;28;20411;-56
2022/06/25 01:24:47;;;;;;;3.53;3.23;;;;;;;;;;5033244;28;20386;-56
2022/06/25 01:27:16;;;;;;;3.10;2.90;;;;;;;;;;5033276;28;20770;-54
2022/06/25 01:29:42;;;;;;;4.97;3.40;;;;;;;;;;5032918;28;20438;-55
2022/06/25 01:32:10;;;;;;;7.33;3.40;;;;;;;;;;5032463;28;20926;-55
2022/06/25 01:34:36;;;;;;;4.07;3.67;;;;;;;;;;5033139;28;20410;-56
2022/06/25 01:37:02;;;;;;;6.60;3.67;;;;;;;;;;5033137;28;20392;-56
2022/06/25 01:39:28;;;;;;;3.27;3.07;;;;;;;;;;5032876;28;20421;-56
2022/06/25 01:41:54;;;;;;;5.73;3.13;;;;;;;;;;5032601;28;20429;-56
2022/06/25 01:44:20;;;;;;;3.90;3.60;;;;;;;;;;5032858;28;20865;-56
2022/06/25 01:46:45;;;;;;;4.27;3.93;;;;;;;;;;5032987;28;20431;-55
2022/06/25 01:49:11;;;;;;;3.63;3.33;;;;;;;;;;5032823;28;20491;-56
2022/06/25 01:51:37;;;;;;;4.00;3.70;;;;;;;;;;5032481;28;20463;-56
2022/06/25 01:54:03;;;;;;;6.37;4.43;;;;;;;;;;5032683;28;20425;-54
2022/06/25 01:56:29;;;;;;;4.90;3.63;;;;;;;;;;5031967;28;20940;-56
2022/06/25 01:58:55;;;;;;;4.33;3.93;;;;;;;;;;5032835;28;20404;-55
2022/06/25 02:01:21;;;;;;;4.57;4.03;;;;;;;;;;5032128;28;20757;-55
2022/06/25 02:03:47;;;;;;;4.57;4.00;;;;;;;;;;5032618;28;20472;-55
2022/06/25 02:06:13;;;;;;;4.07;3.67;;;;;;;;;;5032856;28;20411;-56
2022/06/25 02:08:39;;;;;;;3.87;3.53;;;;;;;;;;5032437;28;20379;-56
2022/06/25 02:11:06;;;;;;;4.60;4.13;;;;;;;;;;5031852;28;20472;-56
2022/06/25 02:13:32;;;;;;;3.80;3.50;;;;;;;;;;5032383;28;20914;-55
2022/06/25 02:15:59;;;;;;;4.13;3.73;;;;;;;;;;5032309;28;20495;-56
2022/06/25 02:18:25;;;;;;;10.80;4.33;;;;;;;;;;5032374;28;20374;-56
2022/06/25 02:20:51;;;;;;;4.83;3.53;;;;;;;;;;5031938;28;20375;-56
2022/06/25 02:23:17;;;;;;;4.93;3.80;;;;;;;;;;5032174;28;20487;-56
2022/06/25 02:25:44;;;;;;;3.70;3.40;;;;;;;;;;5032100;28;21029;-55
2022/06/25 02:28:10;;;;;;;3.43;3.23;;;;;;;;;;5032153;28;20462;-55
2022/06/25 02:30:36;;;;;;;4.60;4.20;;;;;;;;;;5031718;28;20434;-55
2022/06/25 02:33:03;;;;;;;4.43;4.03;;;;;;;;;;5032029;28;20403;-55
2022/06/25 02:35:29;;;;;;;5.47;4.57;;;;;;;;;;5032097;28;20415;-55
2022/06/25 02:37:55;;;;;;;10.87;4.90;;;;;;;;;;5031980;28;20378;-55
2022/06/25 02:40:21;;;;;;;8.23;4.03;;;;;;;;;;5031573;28;20762;-55
2022/06/25 02:42:47;;;;;;;5.27;3.90;;;;;;;;;;5031926;28;20432;-56
2022/06/25 02:45:13;;;;;;;5.03;4.33;;;;;;;;;;5031935;28;20897;-55
2022/06/25 02:47:39;;;;;;;11.20;3.90;;;;;;;;;;5031879;28;20877;-55
2022/06/25 02:50:06;;;;;;;4.03;3.67;;;;;;;;;;5031685;28;20463;-55
2022/06/25 02:52:32;;;;;;;5.60;4.57;;;;;;;;;;5031606;28;20475;-56
2022/06/25 02:54:58;;;;;;;4.20;3.80;;;;;;;;;;5031829;28;20461;-55
2022/06/25 03:00:09;;;;;;;4.77;4.37;;;;;;;;;;5031619;28;20370;-55
2022/06/25 03:02:35;;;;;;;3.77;3.47;;;;;;;;;;5031521;28;20488;-54
2022/06/25 03:05:02;;;;;;;5.57;3.87;;;;;;;;;;5031684;28;20473;-55
2022/06/25 03:07:29;;;;;;;4.27;3.97;;;;;;;;;;5032539;28;20739;-55
2022/06/25 03:09:55;;;;;;;3.77;3.47;;;;;;;;;;5035861;28;20540;-54
2022/06/25 03:12:21;;;;;;;5.57;4.00;;;;;;;;;;5035622;28;20530;-55
2022/06/25 03:14:47;;;;;;;4.07;3.77;;;;;;;;;;5035763;28;20868;-56
2022/06/25 03:17:12;;;;;;;7.03;4.30;;;;;;;;;;5035654;28;20380;-57
2022/06/25 03:19:38;;;;;;;6.00;3.67;;;;;;;;;;5035499;28;20383;-57
2022/06/25 03:22:04;;;;;;;4.60;4.20;;;;;;;;;;5035180;28;20405;-56
2022/06/25 03:24:30;;;;;;;5.57;4.30;;;;;;;;;;5035497;28;20400;-56
2022/06/25 03:26:56;;;;;;;7.90;3.60;;;;;;;;;;5035535;28;20375;-56
2022/06/25 03:29:22;;;;;;;4.50;4.10;;;;;;;;;;5035365;28;20452;-56
2022/06/25 03:31:48;;;;;;;6.60;4.30;;;;;;;;;;5035026;28;20439;-55
2022/06/25 03:34:14;;;;;;;9.23;4.20;;;;;;;;;;5035231;28;20404;-55
2022/06/25 03:36:40;;;;;;;6.30;4.27;;;;;;;;;;5035526;28;20386;-56
2022/06/25 03:39:06;;;;;;;7.17;4.10;;;;;;;;;;5035447;28;20423;-56
2022/06/25 03:41:32;;;;;;;4.23;3.63;;;;;;;;;;5034891;28;20456;-56
2022/06/25 03:44:02;;;;;;;4.23;3.30;;;;;;;;;;5035174;28;20846;-57
2022/06/25 03:46:28;;;;;;;4.97;4.43;;;;;;;;;;5035094;28;20489;-56
2022/06/25 03:48:54;;;;;;;4.13;3.73;;;;;;;;;;5034977;28;20870;-56
2022/06/25 03:51:20;;;;;;;3.83;2.93;;;;;;;;;;5034530;28;20491;-56
2022/06/25 03:53:46;;;;;;;3.83;3.53;;;;;;;;;;5035014;28;20497;-55
2022/06/25 03:56:12;;;;;;;5.57;3.50;;;;;;;;;;5034928;28;20421;-56
2022/06/25 03:58:38;;;;;;;3.83;3.63;;;;;;;;;;5034853;28;20431;-55
2022/06/25 04:01:04;;;;;;;6.37;3.23;;;;;;;;;;5034381;28;20435;-56
2022/06/25 04:03:30;;;;;;;3.73;3.40;;;;;;;;;;5034660;28;20402;-56
2022/06/25 04:05:56;;;;;;;4.10;3.70;;;;;;;;;;5034701;28;20948;-57
2022/06/25 04:08:22;;;;;;;4.00;3.50;;;;;;;;;;5034693;28;20381;-55
2022/06/25 04:10:48;;;;;;;3.63;3.43;;;;;;;;;;5034343;28;20455;-57
2022/06/25 04:13:14;;;;;;;3.47;3.13;;;;;;;;;;5034633;28;20411;-56
2022/06/25 04:15:40;;;;;;;4.07;3.60;;;;;;;;;;5034512;28;20387;-56
2022/06/25 04:18:06;;;;;;;4.70;3.53;;;;;;;;;;5033941;28;20384;-56
2022/06/25 04:20:32;;;;;;;3.43;3.23;;;;;;;;;;5034169;28;20454;-56
2022/06/25 04:22:58;;;;;;;3.60;3.40;;;;;;;;;;5034424;28;20405;-56
2022/06/25 04:25:25;;;;;;;3.70;3.40;;;;;;;;;;5034433;28;20408;-56
2022/06/25 04:30:35;;;;;;;4.40;3.43;;;;;;;;;;5033972;28;20565;-55
2022/06/25 04:33:01;;;;;;;3.50;3.30;;;;;;;;;;5034844;28;20459;-57
2022/06/25 04:35:27;;;;;;;4.10;3.80;;;;;;;;;;5034318;28;20376;-58
2022/06/25 04:37:53;;;;;;;4.27;3.97;;;;;;;;;;5034145;28;20372;-58
2022/06/25 04:40:19;;;;;;;4.43;3.93;;;;;;;;;;5033908;28;20483;-57
2022/06/25 04:42:46;;;;;;;5.03;3.80;;;;;;;;;;5034075;28;20406;-57
2022/06/25 04:45:12;;;;;;;3.70;3.50;;;;;;;;;;5033978;28;20405;-58
2022/06/25 04:47:38;;;;;;;3.90;3.50;;;;;;;;;;5034038;28;20414;-57
2022/06/25 04:50:05;;;;;;;3.03;2.83;;;;;;;;;;5033878;28;20457;-56
2022/06/25 04:52:31;;;;;;;4.03;3.73;;;;;;;;;;5033809;28;20428;-58
2022/06/25 04:54:57;;;;;;;6.13;3.40;;;;;;;;;;5033908;28;20423;-58
2022/06/25 04:57:22;;;;;;;6.37;3.40;;;;;;;;;;5033866;28;20413;-57
2022/06/25 04:59:48;;;;;;;2.80;2.70;;;;;;;;;;5033604;28;20416;-58
2022/06/25 05:02:14;;;;;;;4.10;3.80;;;;;;;;;;5033332;28;20427;-57
2022/06/25 05:04:40;;;;;;;4.30;3.90;;;;;;;;;;5033574;28;20380;-58
2022/06/25 05:07:07;;;;;;;5.83;4.23;;;;;;;;;;5033671;28;20416;-57
2022/06/25 05:09:33;;;;;;;3.37;3.07;;;;;;;;;;5033555;28;20815;-58
2022/06/25 05:11:59;;;;;;;3.60;3.30;;;;;;;;;;5033300;28;20903;-57
2022/06/25 05:14:24;;;;;;;3.77;3.57;;;;;;;;;;5033393;28;20457;-57
2022/06/25 05:16:50;;;;;;;3.50;3.30;;;;;;;;;;5033454;28;20401;-58
2022/06/25 05:19:16;;;;;;;6.63;3.40;;;;;;;;;;5033302;28;20443;-58
2022/06/25 05:21:42;;;;;;;4.33;3.53;;;;;;;;;;5033114;28;20420;-58
2022/06/25 05:24:08;;;;;;;3.63;3.33;;;;;;;;;;5033334;28;20375;-58
2022/06/25 05:26:34;;;;;;;2.90;2.70;;;;;;;;;;5033711;28;20702;-57
2022/06/25 05:29:00;;;;;;;7.77;3.40;;;;;;;;;;5033065;28;20457;-58
2022/06/25 05:31:26;;;;;;;3.17;2.90;;;;;;;;;;5031860;28;20444;-58
2022/06/25 05:33:52;;;;;;;3.07;2.83;;;;;;;;;;5033068;28;20373;-58
2022/06/25 05:36:18;;;;;;;3.40;3.13;;;;;;;;;;5033205;28;20443;-57
2022/06/25 05:38:45;;;;;;;5.80;3.47;;;;;;;;;;5033001;28;20376;-58
2022/06/25 05:41:11;;;;;;;3.20;3.00;;;;;;;;;;5032688;28;20925;-57
2022/06/25 05:43:37;;;;;;;3.27;3.03;;;;;;;;;;5032805;28;20406;-58
2022/06/25 05:46:04;;;;;;;3.43;3.13;;;;;;;;;;5033015;28;20422;-58
2022/06/25 05:48:30;;;;;;;5.73;3.13;;;;;;;;;;5032966;28;20408;-57
2022/06/25 05:50:57;;;;;;;3.30;3.10;;;;;;;;;;5032571;28;20849;-58
2022/06/25 05:53:23;;;;;;;3.50;3.20;;;;;;;;;;5032803;28;20410;-57
2022/06/25 05:55:49;;;;;;;3.43;3.10;;;;;;;;;;5032645;28;20398;-56
2022/06/25 05:58:15;;;;;;;3.73;3.43;;;;;;;;;;5032586;28;20399;-58
2022/06/25 06:00:41;;;;;;;4.00;3.70;;;;;;;;;;5032379;28;20455;-58
2022/06/25 06:03:07;;;;;;;3.80;3.50;;;;;;;;;;5031864;28;20481;-58
2022/06/25 06:05:33;;;;;;;3.20;3.00;;;;;;;;;;5032047;28;21075;-58
2022/06/25 06:07:59;;;;;;;3.70;3.40;;;;;;;;;;5031979;28;20410;-57
2022/06/25 06:10:25;;;;;;;3.83;3.47;;;;;;;;;;5031409;28;20454;-58
2022/06/25 06:12:51;;;;;;;3.37;3.07;;;;;;;;;;5031851;28;20450;-57
2022/06/25 06:15:17;;;;;;;4.13;3.80;;;;;;;;;;5031735;28;20453;-57
2022/06/25 06:17:43;;;;;;;3.83;3.40;;;;;;;;;;5031779;28;20399;-57
2022/06/25 06:20:10;;;;;;;3.87;3.10;;;;;;;;;;5031690;28;20412;-58
2022/06/25 06:22:36;;;;;;;4.53;3.30;;;;;;;;;;5031686;28;20423;-58
2022/06/25 06:25:02;;;;;;;4.60;3.80;;;;;;;;;;5031605;28;20406;-58
2022/06/25 06:27:28;;;;;;;2.97;2.77;;;;;;;;;;5031640;28;20421;-57
2022/06/25 06:29:54;;;;;;;3.23;2.83;;;;;;;;;;5031681;28;20542;-58
2022/06/25 06:32:20;;;;;;;6.40;3.40;;;;;;;;;;5031292;28;20428;-58
2022/06/25 06:34:46;;;;;;;3.50;3.20;;;;;;;;;;5032407;28;20399;-57
2022/06/25 06:37:12;;;;;;;5.30;4.23;;;;;;;;;;5032141;28;20489;-58
2022/06/25 06:39:38;;;;;;;3.63;3.33;;;;;;;;;;5031841;28;20431;-58
2022/06/25 06:42:04;;;;;;;4.97;2.90;;;;;;;;;;5031677;28;20430;-58
2022/06/25 06:44:30;;;;;;;5.10;3.23;;;;;;;;;;5031968;28;20838;-58
2022/06/25 06:46:56;;;;;;;2.90;2.70;;;;;;;;;;5031878;28;20482;-58
2022/06/25 06:49:22;;;;;;;2.87;2.67;;;;;;;;;;5031873;28;20893;-58
2022/06/25 06:51:48;;;;;;;3.03;2.70;;;;;;;;;;5031507;28;20468;-58
2022/06/25 06:54:14;;;;;;;2.87;2.67;;;;;;;;;;5031737;28;20453;-58
2022/06/25 06:56:40;;;;;;;3.57;3.17;;;;;;;;;;5031845;28;20399;-58
2022/06/25 06:59:08;;;;;;;5.83;2.90;;;;;;;;;;5031765;28;20400;-57
2022/06/25 07:01:34;;;;;;;3.40;3.10;;;;;;;;;;5031411;28;20440;-58
2022/06/25 07:04:00;;;;;;;4.33;2.97;;;;;;;;;;5031822;28;20906;-58
2022/06/25 07:06:26;;;;;;;3.67;3.43;;;;;;;;;;5031752;28;20493;-58
2022/06/25 07:08:52;;;;;;;2.63;2.43;;;;;;;;;;5031595;28;20406;-58
2022/06/25 07:11:31;;;;;;;5.30;3.07;;;;;;;;;;5031370;28;20979;-59
2022/06/25 07:13:56;;;;;;;2.90;2.70;;;;;;;;;;5031733;28;20416;-58
2022/06/25 07:16:23;;;;;;;3.30;2.77;;;;;;;;;;5031696;28;20484;-58
2022/06/25 07:18:49;;;;;;;3.90;3.10;;;;;;;;;;5031666;28;20399;-58
2022/06/25 07:21:15;;;;;;;4.90;3.47;;;;;;;;;;5031249;28;20505;-58
2022/06/25 07:23:41;;;;;;;3.43;2.77;;;;;;;;;;5031711;28;20409;-59
2022/06/25 07:26:07;;;;;;;8.23;3.37;;;;;;;;;;5031541;28;20784;-58
2022/06/25 07:28:33;;;;;;;8.10;3.13;;;;;;;;;;5031467;28;20413;-58
2022/06/25 07:30:59;;;;;;;4.17;3.10;;;;;;;;;;5031110;28;20794;-58
2022/06/25 07:33:25;;;;;;;4.77;2.67;;;;;;;;;;5031719;28;20421;-58
2022/06/25 07:35:51;;;;;;;2.90;2.70;;;;;;;;;;5031508;28;20759;-58
2022/06/25 07:38:17;;;;;;;3.00;2.50;;;;;;;;;;5031458;28;20482;-58
2022/06/25 07:40:43;;;;;;;2.93;2.63;;;;;;;;;;5031192;28;20406;-58
2022/06/25 07:43:09;;;;;;;3.77;2.80;;;;;;;;;;5031470;28;20438;-58
2022/06/25 07:45:35;;;;;;;3.23;2.73;;;;;;;;;;5031451;28;20414;-58
2022/06/25 07:48:01;;;;;;;3.07;2.87;;;;;;;;;;5031366;28;20814;-57
2022/06/25 07:53:11;;;;;;;2.50;2.30;;;;;;;;;;5031987;28;20861;-58
2022/06/25 07:55:37;;;;;;;3.20;2.90;;;;;;;;;;5035168;28;20429;-58
2022/06/25 07:58:03;;;;;;;2.63;2.43;;;;;;;;;;5034915;28;20904;-58
2022/06/25 08:00:29;;;;;;;6.33;2.87;;;;;;;;;;5034627;28;20760;-58
2022/06/25 08:02:55;;;;;;;5.03;3.30;;;;;;;;;;5034739;28;20438;-59
2022/06/25 08:05:21;;;;;;;3.80;2.67;;;;;;;;;;5034753;28;20413;-59
2022/06/25 08:07:49;;;;;;;2.83;2.63;;;;;;;;;;5034969;28;20402;-58
2022/06/25 08:10:15;;;;;;;6.10;2.13;;;;;;;;;;5034321;28;20450;-59
2022/06/25 08:12:41;;;;;;;3.20;2.80;;;;;;;;;;5034579;28;20509;-59
2022/06/25 08:15:07;;;;;;;3.10;2.87;;;;;;;;;;5034582;28;20486;-59
2022/06/25 08:17:37;;;;;;;5.13;2.77;;;;;;;;;;5034594;28;20405;-59
2022/06/25 08:20:03;;;;;;;3.37;2.53;;;;;;;;;;5034501;28;20891;-59
2022/06/25 08:22:29;;;;;;;2.37;1.90;;;;;;;;;;5034577;28;20430;-59
2022/06/25 08:24:58;;;;;;;4.67;1.93;;;;;;;;;;5034378;28;20916;-59
2022/06/25 08:27:24;;;;;;;2.47;2.17;;;;;;;;;;5034546;28;20774;-59
2022/06/25 08:29:50;;;;;;;3.07;1.93;;;;;;;;;;5034179;28;20406;-59
2022/06/25 08:32:16;;;;;;;5.43;1.90;;;;;;;;;;5034197;28;20425;-59
2022/06/25 08:34:42;;;;;;;4.20;1.60;;;;;;;;;;5033744;28;20407;-59
2022/06/25 08:37:09;;;;;;;1.57;1.40;;;;;;;;;;5038505;28;20455;-59
2022/06/25 08:39:35;;;;;;;2.50;1.60;;;;;;;;;;5033890;28;20886;-59
2022/06/25 08:42:01;;;;;;;2.77;1.50;;;;;;;;;;5033748;28;20422;-60
2022/06/25 08:44:29;;;;;;;1.97;1.53;;;;;;;;;;5033976;28;20463;-58
2022/06/25 08:46:56;;;;;;;2.37;1.30;;;;;;;;;;5033818;28;20398;-60
2022/06/25 08:49:22;;;;;;;1.80;1.70;;;;;;;;;;5032711;28;20408;-59
2022/06/25 08:51:48;;;;;;;5.03;1.77;;;;;;;;;;5033389;28;20461;-59
2022/06/25 08:54:15;;;;;;;2.77;1.40;;;;;;;;;;5033742;28;20461;-59
2022/06/25 08:56:41;;;;;;;1.50;1.40;;;;;;;;;;5033610;28;20402;-59
2022/06/25 08:59:08;;;;;;;5.53;1.43;;;;;;;;;;5033488;28;20894;-59
2022/06/25 09:01:34;;;;;;;1.50;1.40;;;;;;;;;;5031956;28;20533;-60
2022/06/25 09:04:00;;;;;;;2.00;1.57;;;;;;;;;;5033524;28;20961;-60
2022/06/25 09:06:26;;;;;;;3.23;1.80;;;;;;;;;;5033612;28;20406;-59
2022/06/25 09:09:09;;;;;;;2.97;1.80;;;;;;;;;;5033432;28;20468;-59
2022/06/25 09:11:47;;;;;;;1.67;1.57;;;;;;;;;;5033232;28;20458;-60
2022/06/25 09:14:24;;;;;;;3.77;1.57;;;;;;;;;;5033269;28;20405;-60
2022/06/25 09:17:04;;;;;;;4.10;1.50;;;;;;;;;;5033485;28;20489;-59
2022/06/25 09:19:33;;;;;;;2.27;1.50;;;;;;;;;;5033638;28;20819;-59
2022/06/25 09:22:00;;;;;;;3.40;1.80;;;;;;;;;;5033116;28;20840;-57
2022/06/25 09:24:40;;;;;;;4.10;1.47;;;;;;;;;;5033377;28;20402;-57
2022/06/25 09:27:06;;;;;;;1.70;1.40;;;;;;;;;;5033423;28;20416;-57
2022/06/25 09:29:39;;;;;;;3.20;1.67;;;;;;;;;;5033760;28;20472;-57
2022/06/25 09:32:05;;;;;;;1.50;1.30;;;;;;;;;;5033025;28;20531;-58
2022/06/25 09:34:35;;;;;;;2.03;1.57;;;;;;;;;;5033392;28;20394;-57
2022/06/25 09:37:19;;;;;;;5.83;1.70;;;;;;;;;;5033309;28;20957;-57
2022/06/25 09:39:46;;;;;;;1.40;1.30;;;;;;;;;;5033522;28;20772;-57
2022/06/25 09:42:34;;;;;;;2.43;1.53;;;;;;;;;;5033217;28;20437;-57
2022/06/25 09:45:04;;;;;;;1.90;1.43;;;;;;;;;;5032944;28;20386;-56
2022/06/25 09:47:30;;;;;;;5.83;1.30;;;;;;;;;;5032916;28;20386;-57
2022/06/25 09:50:23;;;;;;;2.30;1.97;;;;;;;;;;5032765;28;20448;-58
2022/06/25 09:52:53;;;;;;;1.53;1.20;;;;;;;;;;5029214;28;20531;-57
2022/06/25 09:55:20;;;;;;;2.03;1.40;;;;;;;;;;5032722;28;20401;-57
2022/06/25 09:57:47;;;;;;;2.10;1.33;;;;;;;;;;5032690;28;20437;-57
2022/06/25 10:00:14;;;;;;;3.00;1.50;;;;;;;;;;5032286;28;20929;-57
2022/06/25 10:02:41;;;;;;;1.97;1.50;;;;;;;;;;5032430;28;20844;-56
2022/06/25 10:05:08;;;;;;;1.97;1.50;;;;;;;;;;5032534;28;20413;-57
2022/06/25 10:10:21;;;;;;;5.93;1.43;;;;;;;;;;5032308;28;20552;-58
2022/06/25 10:12:47;;;;;;;5.73;1.50;;;;;;;;;;5032696;28;20423;-58
2022/06/25 10:15:15;;;;;;;1.93;1.13;;;;;;;;;;5032579;28;20436;-57
2022/06/25 10:17:41;;;;;;;5.30;3.00;;;;;;;;;;5032126;28;20767;-58
2022/06/25 10:20:08;;;;;;;1.93;1.30;;;;;;;;;;5032141;28;20912;-57
2022/06/25 10:22:36;;;;;;;11.27;1.30;;;;;;;;;;5032139;28;20524;-57
2022/06/25 10:25:02;;;;;;;4.60;1.63;;;;;;;;;;5032335;28;20870;-58
2022/06/25 10:27:28;;;;;;;1.30;1.20;;;;;;;;;;5032174;28;20410;-58
2022/06/25 10:29:57;;;;;;;1.37;1.27;;;;;;;;;;5032088;28;20500;-58
2022/06/25 10:32:24;;;;;;;2.10;1.20;;;;;;;;;;5032420;28;20438;-56
2022/06/25 10:34:56;;;;;;;6.30;1.40;;;;;;;;;;5032054;28;20947;-56
2022/06/25 10:37:23;;;;;;;2.83;1.40;;;;;;;;;;5032003;28;20481;-56
2022/06/25 10:39:49;;;;;;;2.53;1.33;;;;;;;;;;5031812;28;20944;-56
2022/06/25 10:45:15;;;;;;;1.43;1.33;;;;;;;;;;5032085;28;20386;-55
2022/06/25 10:47:47;;;;;;;1.93;1.40;;;;;;;;;;5031943;28;20884;-57
2022/06/25 10:50:28;;;;;;;4.47;1.50;;;;;;;;;;5031415;28;20450;-56
2022/06/25 10:53:03;;;;;;;1.93;1.30;;;;;;;;;;5031879;28;20445;-56
2022/06/25 10:55:38;;;;;;;3.00;1.40;;;;;;;;;;5031808;28;20893;-56
2022/06/25 10:58:13;;;;;;;3.43;1.57;;;;;;;;;;5031766;28;20485;-56
2022/06/25 11:00:59;;;;;;;2.20;1.43;;;;;;;;;;5031403;28;20405;-57
2022/06/25 11:03:29;;;;;;;1.60;1.50;;;;;;;;;;5031823;28;20409;-57
2022/06/25 11:05:59;;;;;;;1.53;1.37;;;;;;;;;;5031756;28;20815;-57
2022/06/25 11:08:34;;;;;;;1.30;1.20;;;;;;;;;;5031723;28;20401;-56
2022/06/25 11:11:00;;;;;;;2.50;1.53;;;;;;;;;;5031130;28;20449;-56
2022/06/25 11:13:27;;;;;;;1.60;1.50;;;;;;;;;;5031623;28;20397;-56
2022/06/25 11:15:53;;;;;;;2.30;1.40;;;;;;;;;;5031694;28;20402;-56
2022/06/25 11:18:20;;;;;;;1.53;1.20;;;;;;;;;;5031711;28;20410;-57
2022/06/25 11:20:46;;;;;;;2.90;1.60;;;;;;;;;;5031230;28;20433;-58
2022/06/25 11:23:13;;;;;;;4.60;1.57;;;;;;;;;;5031592;28;20952;-58
2022/06/25 11:28:49;;;;;;;1.60;1.50;;;;;;;;;;5032707;28;20417;-59
2022/06/25 11:31:16;;;;;;;2.60;1.53;;;;;;;;;;5035052;28;20461;-57
2022/06/25 11:33:43;;;;;;;1.97;1.37;;;;;;;;;;5035165;28;20426;-58
2022/06/25 11:36:09;;;;;;;3.47;1.80;;;;;;;;;;5035357;28;20397;-58
2022/06/25 11:38:36;;;;;;;2.30;1.80;;;;;;;;;;5036763;28;20428;-57
2022/06/25 11:41:02;;;;;;;3.60;1.70;;;;;;;;;;5037506;28;20437;-58
2022/06/25 11:43:28;;;;;;;1.97;1.50;;;;;;;;;;5017356;28;20421;-58
2022/06/25 11:45:58;;;;;;;1.63;1.40;;;;;;;;;;5035030;28;20406;-58
2022/06/25 11:48:28;;;;;;;5.60;1.60;;;;;;;;;;5034987;28;20431;-57
2022/06/25 11:50:55;;;;;;;1.63;1.47;;;;;;;;;;5034645;28;20453;-58
2022/06/25 11:53:21;;;;;;;5.17;1.67;;;;;;;;;;5034928;28;20468;-57
2022/06/25 11:55:57;;;;;;;2.13;1.27;;;;;;;;;;5034887;28;20736;-57
2022/06/25 11:58:23;;;;;;;1.57;1.47;;;;;;;;;;5033774;28;20394;-57
2022/06/25 12:00:49;;;;;;;1.80;1.70;;;;;;;;;;5032594;28;20440;-59
2022/06/25 12:03:15;;;;;;;1.97;1.73;;;;;;;;;;5034258;28;20429;-59
2022/06/25 12:05:41;;;;;;;1.53;1.43;;;;;;;;;;5034852;28;20896;-58
2022/06/25 12:08:09;;;;;;;3.30;1.63;;;;;;;;;;5034744;28;20756;-58
2022/06/25 12:10:35;;;;;;;3.10;1.63;;;;;;;;;;5034319;28;20462;-58
2022/06/25 12:13:01;;;;;;;3.17;1.53;;;;;;;;;;5034352;28;20479;-58
2022/06/25 12:15:31;;;;;;;2.63;1.60;;;;;;;;;;5034630;28;20398;-57
2022/06/25 12:18:03;;;;;;;3.47;1.90;;;;;;;;;;5034612;28;20402;-58
2022/06/25 12:20:29;;;;;;;1.90;1.80;;;;;;;;;;5033223;28;20824;-57
2022/06/25 12:22:56;;;;;;;2.30;1.70;;;;;;;;;;5034389;28;20430;-58
2022/06/25 12:25:23;;;;;;;2.03;1.80;;;;;;;;;;5034327;28;20402;-57
2022/06/25 12:27:50;;;;;;;1.83;1.47;;;;;;;;;;5034247;28;20445;-58
2022/06/25 12:30:26;;;;;;;3.00;2.00;;;;;;;;;;5033926;28;20511;-58
2022/06/25 12:32:53;;;;;;;2.00;1.80;;;;;;;;;;5034265;28;20972;-58
2022/06/25 12:35:20;;;;;;;4.33;1.83;;;;;;;;;;5034054;28;20413;-57
2022/06/25 12:38:01;;;;;;;3.43;1.50;;;;;;;;;;5034127;28;20406;-58
2022/06/25 12:40:28;;;;;;;1.60;1.33;;;;;;;;;;5033420;28;20481;-58
2022/06/25 12:42:58;;;;;;;1.60;1.50;;;;;;;;;;5034063;28;20922;-58
2022/06/25 12:45:24;;;;;;;5.67;1.80;;;;;;;;;;5034052;28;20407;-59
2022/06/25 12:47:50;;;;;;;2.20;2.00;;;;;;;;;;5034103;28;20414;-58
2022/06/25 12:50:27;;;;;;;2.20;1.57;;;;;;;;;;5033518;28;20516;-59
2022/06/25 12:52:54;;;;;;;2.00;1.90;;;;;;;;;;5033963;28;20464;-59
2022/06/25 12:55:24;;;;;;;3.83;1.63;;;;;;;;;;5033861;28;20490;-58
2022/06/25 12:57:51;;;;;;;1.83;1.73;;;;;;;;;;5034209;28;20403;-59
2022/06/25 13:00:19;;;;;;;3.37;1.87;;;;;;;;;;5033518;28;20965;-58
2022/06/25 13:02:45;;;;;;;2.40;1.80;;;;;;;;;;5033455;28;20446;-58
2022/06/25 13:05:11;;;;;;;1.60;1.50;;;;;;;;;;5033683;28;20406;-58
2022/06/25 13:07:37;;;;;;;3.13;1.63;;;;;;;;;;5033676;28;20415;-58
2022/06/25 13:10:04;;;;;;;2.43;1.80;;;;;;;;;;5033431;28;20885;-59
2022/06/25 13:12:30;;;;;;;7.30;1.60;;;;;;;;;;5033750;28;20868;-59
2022/06/25 13:14:56;;;;;;;2.77;1.80;;;;;;;;;;5033511;28;20420;-59
2022/06/25 13:17:22;;;;;;;1.47;1.37;;;;;;;;;;5033360;28;20403;-58
2022/06/25 13:19:48;;;;;;;2.00;1.90;;;;;;;;;;5033329;28;20406;-58
2022/06/25 13:22:14;;;;;;;5.07;1.67;;;;;;;;;;5033157;28;20432;-59
2022/06/25 13:24:40;;;;;;;2.43;1.50;;;;;;;;;;5033276;28;20398;-58
2022/06/25 13:27:06;;;;;;;1.83;1.63;;;;;;;;;;5033301;28;20761;-58
2022/06/25 13:29:32;;;;;;;3.87;1.50;;;;;;;;;;5033183;28;20406;-58
2022/06/25 13:31:59;;;;;;;1.80;1.70;;;;;;;;;;5032339;28;20465;-58
2022/06/25 13:34:26;;;;;;;1.90;1.80;;;;;;;;;;5033166;28;20399;-58
2022/06/25 13:36:52;;;;;;;3.10;2.00;;;;;;;;;;5033123;28;20481;-58
2022/06/25 13:39:18;;;;;;;3.87;1.53;;;;;;;;;;5033351;28;20437;-58
2022/06/25 13:41:45;;;;;;;3.57;1.63;;;;;;;;;;5032744;28;20928;-59
2022/06/25 13:44:12;;;;;;;2.27;2.07;;;;;;;;;;5033023;28;20403;-58
2022/06/25 13:46:38;;;;;;;2.90;1.90;;;;;;;;;;5032884;28;20411;-58
2022/06/25 13:49:04;;;;;;;1.97;1.87;;;;;;;;;;5032822;28;20406;-58
2022/06/25 13:51:30;;;;;;;2.00;1.90;;;;;;;;;;5031694;28;20453;-58
2022/06/25 13:53:56;;;;;;;1.97;1.77;;;;;;;;;;5032885;28;20402;-57
2022/06/25 13:56:22;;;;;;;1.63;1.53;;;;;;;;;;5032732;28;20452;-58
2022/06/25 13:58:48;;;;;;;2.13;1.47;;;;;;;;;;5032770;28;20403;-58
2022/06/25 14:01:14;;;;;;;1.70;1.60;;;;;;;;;;5032194;28;20422;-59
2022/06/25 14:03:40;;;;;;;5.63;1.87;;;;;;;;;;5032634;28;20436;-58
2022/06/25 14:06:07;;;;;;;2.37;1.80;;;;;;;;;;5032613;28;20771;-58
2022/06/25 14:08:33;;;;;;;1.63;1.53;;;;;;;;;;5032459;28;20409;-58
2022/06/25 14:10:59;;;;;;;2.80;1.60;;;;;;;;;;5031994;28;20457;-58
2022/06/25 14:13:25;;;;;;;2.10;1.80;;;;;;;;;;5032465;28;20485;-58
2022/06/25 14:15:51;;;;;;;2.27;1.70;;;;;;;;;;5031264;28;20935;-58
2022/06/25 14:18:17;;;;;;;2.90;1.80;;;;;;;;;;5032385;28;20489;-58
2022/06/25 14:20:43;;;;;;;1.57;1.40;;;;;;;;;;5032012;28;20449;-58
2022/06/25 14:23:09;;;;;;;3.03;1.80;;;;;;;;;;5032111;28;20446;-58
2022/06/25 14:25:35;;;;;;;4.27;1.53;;;;;;;;;;5032034;28;20766;-57
2022/06/25 14:28:04;;;;;;;1.80;1.70;;;;;;;;;;5032168;28;20433;-58
2022/06/25 14:30:32;;;;;;;2.00;1.80;;;;;;;;;;5031726;28;20453;-58
2022/06/25 14:32:58;;;;;;;2.60;2.10;;;;;;;;;;5032016;28;20418;-58
2022/06/25 14:35:24;;;;;;;8.40;2.20;;;;;;;;;;5032054;28;20932;-58
2022/06/25 14:43:20;;;;;;;3.40;2.30;;;;;;;;;;5032432;28;20430;-57
2022/06/25 14:45:46;;;;;;;2.23;2.03;;;;;;;;;;5031880;28;20414;-57
2022/06/25 14:48:12;;;;;;;2.20;1.70;;;;;;;;;;5031743;28;20398;-57
2022/06/25 14:50:38;;;;;;;2.63;1.63;;;;;;;;;;5031524;28;20450;-57
2022/06/25 14:53:04;;;;;;;2.50;2.00;;;;;;;;;;5031719;28;20506;-57
2022/06/25 14:55:30;;;;;;;3.93;1.90;;;;;;;;;;5031881;28;20398;-57
2022/06/25 14:57:56;;;;;;;2.03;1.53;;;;;;;;;;5031781;28;20398;-58
2022/06/25 15:00:22;;;;;;;4.63;2.13;;;;;;;;;;5031473;28;20410;-58
2022/06/25 15:02:49;;;;;;;3.10;1.93;;;;;;;;;;5034060;28;20441;-58
2022/06/25 15:05:15;;;;;;;1.60;1.50;;;;;;;;;;5038429;28;20503;-58